ΕΜΥ, Εθνική Μετεωρολογική Υπηρεσία - Δελτία Καιρού, Προγνώσεις

ΑΕΡΟΝΑΥΤΙΛΙΑ

GREEK AIRPORTS CODES

LGAV 281150Z 12012KT 9999 SCT020 BKN040 17/12 Q1020 RMK SCT080 BKN180 NOSIG=

EUROPEAN AIRPORTS CODES

LFPO 281200Z 21006KT 150V270 9999 BKN024 09/04 Q1024 NOSIG=